SKU171 SCEL-SCIE
Flight info
| Callsign | SKU171 |
|---|---|
| Flight time | 0h 42m |
| Altitude | 31000 |
| Route | GELUS5B GELUS UQ809 ARUNI ARUNI6C |
| Aircraft | A20N/M-SDE2E3FGHIRWXY/LB1 |
Departure
| Time | 2026-04-24 01:00 |
|---|---|
| Airport | Comodoro Arturo Merino Benítez International Airport (SCEL) |
Arrival
| Time | 2026-04-24 01:42 |
|---|---|
| Airport | Carriel Sur International Airport (SCIE) |
| Time | Latitude | Longitude | Altitude | Speed | Heading |
|---|---|---|---|---|---|
| 2026-04-24 00:35 | -33.39576 | -70.79412 | 1586 ft | 0 kts | 200° |
| 2026-04-24 00:45 | -33.39576 | -70.79411 | 1587 ft | 0 kts | 201° |
| 2026-04-24 00:45 | -33.39563 | -70.79406 | 1587 ft | 2 kts | 200° |
| 2026-04-24 00:46 | -33.39549 | -70.79400 | 1587 ft | 2 kts | 201° |
| 2026-04-24 00:46 | -33.39535 | -70.79394 | 1588 ft | 2 kts | 201° |
| 2026-04-24 00:46 | -33.39521 | -70.79386 | 1587 ft | 2 kts | 224° |
| 2026-04-24 00:46 | -33.39512 | -70.79372 | 1588 ft | 2 kts | 250° |
| 2026-04-24 00:47 | -33.39510 | -70.79362 | 1588 ft | 1 kts | 267° |
| 2026-04-24 00:47 | -33.39510 | -70.79353 | 1588 ft | 0 kts | 268° |
| 2026-04-24 00:49 | -33.39510 | -70.79354 | 1588 ft | 0 kts | 268° |
| 2026-04-24 00:49 | -33.39511 | -70.79370 | 1587 ft | 4 kts | 268° |
| 2026-04-24 00:49 | -33.39514 | -70.79448 | 1586 ft | 13 kts | 265° |
| 2026-04-24 00:50 | -33.39519 | -70.79583 | 1581 ft | 19 kts | 268° |
| 2026-04-24 00:50 | -33.39526 | -70.79762 | 1575 ft | 23 kts | 267° |
| 2026-04-24 00:50 | -33.39530 | -70.79881 | 1572 ft | 12 kts | 268° |
| 2026-04-24 00:50 | -33.39532 | -70.79930 | 1572 ft | 4 kts | 268° |
| 2026-04-24 00:51 | -33.39532 | -70.79970 | 1572 ft | 4 kts | 269° |
| 2026-04-24 00:51 | -33.39515 | -70.80028 | 1572 ft | 11 kts | 317° |
| 2026-04-24 00:51 | -33.39415 | -70.80048 | 1572 ft | 16 kts | 358° |
| 2026-04-24 00:51 | -33.39280 | -70.80055 | 1572 ft | 21 kts | 356° |
| 2026-04-24 00:52 | -33.39135 | -70.80064 | 1572 ft | 20 kts | 358° |
| 2026-04-24 00:52 | -33.39001 | -70.80069 | 1572 ft | 18 kts | 358° |
| 2026-04-24 00:52 | -33.38876 | -70.80077 | 1572 ft | 17 kts | 357° |
| 2026-04-24 00:52 | -33.38759 | -70.80083 | 1572 ft | 16 kts | 358° |
| 2026-04-24 00:53 | -33.38649 | -70.80090 | 1572 ft | 15 kts | 357° |
| 2026-04-24 00:53 | -33.38540 | -70.80096 | 1572 ft | 15 kts | 358° |
| 2026-04-24 00:53 | -33.38428 | -70.80101 | 1572 ft | 16 kts | 357° |
| 2026-04-24 00:53 | -33.38315 | -70.80107 | 1572 ft | 16 kts | 357° |
| 2026-04-24 00:54 | -33.38198 | -70.80113 | 1573 ft | 16 kts | 357° |
| 2026-04-24 00:54 | -33.38076 | -70.80119 | 1573 ft | 18 kts | 357° |
| 2026-04-24 00:54 | -33.37935 | -70.80128 | 1573 ft | 21 kts | 357° |
| 2026-04-24 00:54 | -33.37775 | -70.80136 | 1573 ft | 23 kts | 358° |
| 2026-04-24 00:55 | -33.37609 | -70.80145 | 1573 ft | 23 kts | 358° |
| 2026-04-24 00:55 | -33.37465 | -70.80152 | 1573 ft | 19 kts | 357° |
| 2026-04-24 00:55 | -33.37338 | -70.80160 | 1573 ft | 17 kts | 358° |
| 2026-04-24 00:55 | -33.37223 | -70.80165 | 1573 ft | 15 kts | 358° |
| 2026-04-24 00:56 | -33.37139 | -70.80184 | 1573 ft | 12 kts | 330° |
| 2026-04-24 00:56 | -33.37107 | -70.80241 | 1573 ft | 0 kts | 283° |
| 2026-04-24 00:56 | -33.37106 | -70.80261 | 1573 ft | 7 kts | 269° |
| 2026-04-24 00:56 | -33.37116 | -70.80325 | 1573 ft | 8 kts | 246° |
| 2026-04-24 00:57 | -33.37158 | -70.80367 | 1572 ft | 9 kts | 184° |
| 2026-04-24 00:57 | -33.37216 | -70.80371 | 1572 ft | 0 kts | 178° |
| 2026-04-24 00:59 | -33.37230 | -70.80370 | 1572 ft | 17 kts | 177° |
| 2026-04-24 00:59 | -33.37630 | -70.80348 | 1573 ft | 94 kts | 177° |
| 2026-04-24 01:00 | -33.38502 | -70.80302 | 1573 ft | 154 kts | 176° |
| 2026-04-24 01:00 | -33.39651 | -70.80232 | 1997 ft | 169 kts | 176° |
| 2026-04-24 01:00 | -33.40819 | -70.80159 | 2707 ft | 171 kts | 176° |
| 2026-04-24 01:00 | -33.41992 | -70.80102 | 3406 ft | 174 kts | 177° |
| 2026-04-24 01:01 | -33.43243 | -70.80045 | 3885 ft | 187 kts | 178° |
| 2026-04-24 01:01 | -33.44562 | -70.80316 | 4272 ft | 204 kts | 210° |
| 2026-04-24 01:01 | -33.45562 | -70.81590 | 4697 ft | 220 kts | 238° |
| 2026-04-24 01:01 | -33.46345 | -70.83237 | 5157 ft | 237 kts | 242° |
| 2026-04-24 01:02 | -33.47198 | -70.85054 | 5546 ft | 260 kts | 240° |
| 2026-04-24 01:02 | -33.48168 | -70.86966 | 6108 ft | 277 kts | 239° |
| 2026-04-24 01:02 | -33.49213 | -70.88910 | 6903 ft | 283 kts | 238° |
| 2026-04-24 01:02 | -33.50304 | -70.90876 | 7793 ft | 286 kts | 238° |
| 2026-04-24 01:03 | -33.51413 | -70.92855 | 8657 ft | 290 kts | 238° |
| 2026-04-24 01:03 | -33.52539 | -70.94859 | 9483 ft | 293 kts | 238° |
| 2026-04-24 01:03 | -33.53771 | -70.96792 | 10292 ft | 299 kts | 228° |
| 2026-04-24 01:03 | -33.55397 | -70.98387 | 10935 ft | 315 kts | 213° |
| 2026-04-24 01:04 | -33.57385 | -70.99679 | 11437 ft | 332 kts | 208° |
| 2026-04-24 01:04 | -33.59497 | -71.00928 | 12168 ft | 340 kts | 208° |
| 2026-04-24 01:04 | -33.61603 | -71.02164 | 13012 ft | 342 kts | 208° |
| 2026-04-24 01:04 | -33.63764 | -71.03446 | 13742 ft | 348 kts | 208° |
| 2026-04-24 01:05 | -33.65920 | -71.04739 | 14455 ft | 354 kts | 209° |
| 2026-04-24 01:05 | -33.68122 | -71.06066 | 15241 ft | 357 kts | 209° |
| 2026-04-24 01:05 | -33.70351 | -71.07416 | 16030 ft | 360 kts | 210° |
| 2026-04-24 01:05 | -33.72581 | -71.08770 | 16774 ft | 364 kts | 210° |
| 2026-04-24 01:06 | -33.74843 | -71.10147 | 17518 ft | 367 kts | 210° |
| 2026-04-24 01:06 | -33.77122 | -71.11533 | 18229 ft | 370 kts | 210° |
| 2026-04-24 01:06 | -33.79421 | -71.12933 | 18929 ft | 373 kts | 210° |
| 2026-04-24 01:06 | -33.81738 | -71.14345 | 19655 ft | 374 kts | 210° |
| 2026-04-24 01:07 | -33.84076 | -71.15771 | 20395 ft | 376 kts | 210° |
| 2026-04-24 01:07 | -33.86403 | -71.17190 | 21101 ft | 378 kts | 210° |
| 2026-04-24 01:07 | -33.88758 | -71.18627 | 21790 ft | 379 kts | 211° |
| 2026-04-24 01:07 | -33.91086 | -71.20051 | 22443 ft | 381 kts | 211° |
| 2026-04-24 01:08 | -33.93449 | -71.21496 | 23074 ft | 383 kts | 211° |
| 2026-04-24 01:08 | -33.95837 | -71.22957 | 23691 ft | 385 kts | 211° |
| 2026-04-24 01:08 | -33.98247 | -71.24434 | 24279 ft | 388 kts | 211° |
| 2026-04-24 01:08 | -34.00630 | -71.25894 | 24832 ft | 391 kts | 211° |
| 2026-04-24 01:09 | -34.03075 | -71.27394 | 25377 ft | 393 kts | 211° |
| 2026-04-24 01:09 | -34.05508 | -71.28888 | 25891 ft | 396 kts | 211° |
| 2026-04-24 01:09 | -34.07960 | -71.30394 | 26391 ft | 398 kts | 211° |
| 2026-04-24 01:09 | -34.10461 | -71.31930 | 26861 ft | 401 kts | 211° |
| 2026-04-24 01:10 | -34.12945 | -71.33457 | 27300 ft | 404 kts | 211° |
| 2026-04-24 01:10 | -34.15473 | -71.35012 | 27745 ft | 407 kts | 211° |
| 2026-04-24 01:10 | -34.17966 | -71.36545 | 28212 ft | 409 kts | 211° |
| 2026-04-24 01:10 | -34.20495 | -71.38103 | 28805 ft | 407 kts | 211° |
| 2026-04-24 01:11 | -34.23039 | -71.39669 | 29401 ft | 405 kts | 211° |
| 2026-04-24 01:11 | -34.25514 | -71.41194 | 29907 ft | 405 kts | 211° |
| 2026-04-24 01:11 | -34.28056 | -71.42763 | 30340 ft | 407 kts | 211° |
| 2026-04-24 01:11 | -34.30573 | -71.44318 | 30729 ft | 408 kts | 211° |
| 2026-04-24 01:12 | -34.33097 | -71.45878 | 31083 ft | 410 kts | 211° |
| 2026-04-24 01:12 | -34.38171 | -71.49018 | 31148 ft | 411 kts | 211° |
| 2026-04-24 01:13 | -34.43263 | -71.52172 | 31152 ft | 410 kts | 211° |
| 2026-04-24 01:13 | -34.48323 | -71.55311 | 31153 ft | 411 kts | 211° |
| 2026-04-24 01:14 | -34.53397 | -71.58462 | 31154 ft | 410 kts | 211° |
| 2026-04-24 01:14 | -34.58488 | -71.61629 | 31158 ft | 415 kts | 210° |
| 2026-04-24 01:14 | -34.61093 | -71.63255 | 31157 ft | 426 kts | 210° |
| 2026-04-24 01:15 | -34.63744 | -71.64909 | 31155 ft | 436 kts | 210° |
| 2026-04-24 01:15 | -34.69218 | -71.68323 | 31150 ft | 446 kts | 210° |
| 2026-04-24 01:16 | -34.74757 | -71.71777 | 31152 ft | 447 kts | 210° |
| 2026-04-24 01:16 | -34.80297 | -71.75237 | 31150 ft | 446 kts | 210° |
| 2026-04-24 01:17 | -34.85794 | -71.78677 | 31151 ft | 446 kts | 210° |
| 2026-04-24 01:17 | -34.91334 | -71.82152 | 31151 ft | 446 kts | 210° |
| 2026-04-24 01:18 | -34.96842 | -71.85612 | 31159 ft | 446 kts | 210° |
| 2026-04-24 01:18 | -35.02363 | -71.89085 | 31167 ft | 446 kts | 210° |
| 2026-04-24 01:19 | -35.07873 | -71.92557 | 31170 ft | 446 kts | 210° |
| 2026-04-24 01:19 | -35.13398 | -71.96043 | 31167 ft | 446 kts | 210° |
| 2026-04-24 01:20 | -35.18886 | -71.99512 | 31170 ft | 447 kts | 210° |
| 2026-04-24 01:20 | -35.24433 | -72.03023 | 31169 ft | 447 kts | 210° |
| 2026-04-24 01:20 | -35.27145 | -72.04740 | 31046 ft | 441 kts | 210° |
| 2026-04-24 01:21 | -35.29845 | -72.06451 | 30656 ft | 433 kts | 210° |
| 2026-04-24 01:21 | -35.32514 | -72.08144 | 30072 ft | 429 kts | 210° |
| 2026-04-24 01:21 | -35.35123 | -72.09803 | 29443 ft | 425 kts | 210° |
| 2026-04-24 01:21 | -35.37736 | -72.11465 | 28742 ft | 424 kts | 210° |
| 2026-04-24 01:22 | -35.40369 | -72.13141 | 27914 ft | 426 kts | 210° |
| 2026-04-24 01:22 | -35.42990 | -72.14813 | 27090 ft | 426 kts | 211° |
| 2026-04-24 01:22 | -35.45615 | -72.16486 | 26498 ft | 422 kts | 210° |
| 2026-04-24 01:22 | -35.48193 | -72.18130 | 25919 ft | 417 kts | 211° |
| 2026-04-24 01:23 | -35.50747 | -72.19759 | 25320 ft | 414 kts | 211° |
| 2026-04-24 01:23 | -35.53271 | -72.21372 | 24732 ft | 411 kts | 211° |
| 2026-04-24 01:23 | -35.55799 | -72.22987 | 24143 ft | 407 kts | 211° |
| 2026-04-24 01:23 | -35.58302 | -72.24590 | 23551 ft | 405 kts | 211° |
| 2026-04-24 01:24 | -35.60786 | -72.26181 | 22971 ft | 402 kts | 211° |
| 2026-04-24 01:24 | -35.63253 | -72.27761 | 22401 ft | 399 kts | 211° |
| 2026-04-24 01:24 | -35.65692 | -72.29327 | 21831 ft | 396 kts | 211° |
| 2026-04-24 01:24 | -35.68107 | -72.30877 | 21267 ft | 393 kts | 211° |
| 2026-04-24 01:25 | -35.70527 | -72.32431 | 20693 ft | 391 kts | 211° |
| 2026-04-24 01:25 | -35.72915 | -72.33965 | 20098 ft | 389 kts | 211° |
| 2026-04-24 01:25 | -35.75330 | -72.35518 | 19463 ft | 388 kts | 211° |
| 2026-04-24 01:25 | -35.77690 | -72.37037 | 18913 ft | 385 kts | 211° |
| 2026-04-24 01:26 | -35.80082 | -72.38576 | 18382 ft | 382 kts | 210° |
| 2026-04-24 01:26 | -35.82406 | -72.40073 | 17878 ft | 378 kts | 210° |
| 2026-04-24 01:26 | -35.84734 | -72.41574 | 17372 ft | 375 kts | 210° |
| 2026-04-24 01:26 | -35.87007 | -72.43040 | 16870 ft | 372 kts | 211° |
| 2026-04-24 01:27 | -35.89260 | -72.44566 | 16374 ft | 367 kts | 213° |
| 2026-04-24 01:27 | -35.91461 | -72.46191 | 15878 ft | 364 kts | 214° |
| 2026-04-24 01:27 | -35.93606 | -72.47801 | 15394 ft | 361 kts | 214° |
| 2026-04-24 01:27 | -35.95732 | -72.49399 | 14910 ft | 358 kts | 214° |
| 2026-04-24 01:28 | -35.97836 | -72.50980 | 14433 ft | 355 kts | 214° |
| 2026-04-24 01:28 | -35.99949 | -72.52566 | 13951 ft | 353 kts | 214° |
| 2026-04-24 01:28 | -36.02048 | -72.54143 | 13477 ft | 350 kts | 214° |
| 2026-04-24 01:28 | -36.04095 | -72.55681 | 13019 ft | 347 kts | 214° |
| 2026-04-24 01:29 | -36.06161 | -72.57234 | 12563 ft | 345 kts | 213° |
| 2026-04-24 01:29 | -36.08198 | -72.58765 | 12113 ft | 342 kts | 213° |
| 2026-04-24 01:29 | -36.10210 | -72.60279 | 11668 ft | 339 kts | 213° |
| 2026-04-24 01:29 | -36.12226 | -72.61796 | 11222 ft | 337 kts | 213° |
| 2026-04-24 01:30 | -36.14226 | -72.63302 | 10783 ft | 334 kts | 213° |
| 2026-04-24 01:30 | -36.16188 | -72.64781 | 10377 ft | 330 kts | 213° |
| 2026-04-24 01:30 | -36.18115 | -72.66232 | 10215 ft | 317 kts | 214° |
| 2026-04-24 01:30 | -36.19949 | -72.67614 | 10087 ft | 304 kts | 214° |
| 2026-04-24 01:31 | -36.21714 | -72.68942 | 9958 ft | 292 kts | 214° |
| 2026-04-24 01:31 | -36.23460 | -72.70261 | 9599 ft | 290 kts | 214° |
| 2026-04-24 01:31 | -36.25155 | -72.71544 | 9238 ft | 288 kts | 214° |
| 2026-04-24 01:31 | -36.26874 | -72.72845 | 8890 ft | 286 kts | 214° |
| 2026-04-24 01:32 | -36.28560 | -72.74121 | 8545 ft | 283 kts | 214° |
| 2026-04-24 01:32 | -36.30216 | -72.75375 | 8210 ft | 280 kts | 214° |
| 2026-04-24 01:32 | -36.31869 | -72.76627 | 7882 ft | 277 kts | 214° |
| 2026-04-24 01:32 | -36.33518 | -72.77878 | 7536 ft | 275 kts | 213° |
| 2026-04-24 01:33 | -36.35130 | -72.79101 | 7206 ft | 272 kts | 213° |
| 2026-04-24 01:33 | -36.36755 | -72.80332 | 6884 ft | 270 kts | 213° |
| 2026-04-24 01:33 | -36.38343 | -72.81535 | 6571 ft | 267 kts | 213° |
| 2026-04-24 01:33 | -36.39925 | -72.82726 | 6255 ft | 264 kts | 213° |
| 2026-04-24 01:34 | -36.41488 | -72.83894 | 5936 ft | 262 kts | 212° |
| 2026-04-24 01:34 | -36.43027 | -72.85046 | 5615 ft | 260 kts | 212° |
| 2026-04-24 01:34 | -36.44584 | -72.86209 | 5294 ft | 258 kts | 211° |
| 2026-04-24 01:34 | -36.46109 | -72.87351 | 4973 ft | 256 kts | 211° |
| 2026-04-24 01:35 | -36.47624 | -72.88487 | 4655 ft | 255 kts | 211° |
| 2026-04-24 01:35 | -36.49141 | -72.89623 | 4340 ft | 253 kts | 210° |
| 2026-04-24 01:35 | -36.50657 | -72.90757 | 4023 ft | 252 kts | 209° |
| 2026-04-24 01:35 | -36.52195 | -72.91773 | 3722 ft | 249 kts | 204° |
| 2026-04-24 01:36 | -36.53717 | -72.92664 | 3683 ft | 234 kts | 204° |
| 2026-04-24 01:36 | -36.55140 | -72.93485 | 3667 ft | 220 kts | 204° |
| 2026-04-24 01:36 | -36.56493 | -72.94266 | 3635 ft | 207 kts | 204° |
| 2026-04-24 01:36 | -36.57754 | -72.94996 | 3659 ft | 189 kts | 203° |
| 2026-04-24 01:37 | -36.58900 | -72.95661 | 3562 ft | 176 kts | 203° |
| 2026-04-24 01:37 | -36.59961 | -72.96277 | 3459 ft | 163 kts | 203° |
| 2026-04-24 01:37 | -36.60971 | -72.96863 | 3244 ft | 157 kts | 202° |
| 2026-04-24 01:37 | -36.61950 | -72.97430 | 3045 ft | 150 kts | 202° |
| 2026-04-24 01:38 | -36.62874 | -72.97965 | 2872 ft | 144 kts | 202° |
| 2026-04-24 01:38 | -36.63789 | -72.98492 | 2722 ft | 144 kts | 202° |
| 2026-04-24 01:38 | -36.64697 | -72.99017 | 2480 ft | 143 kts | 201° |
| 2026-04-24 01:38 | -36.65591 | -72.99534 | 2281 ft | 142 kts | 202° |
| 2026-04-24 01:39 | -36.66487 | -73.00053 | 2095 ft | 142 kts | 201° |
| 2026-04-24 01:39 | -36.67367 | -73.00565 | 1930 ft | 134 kts | 201° |
| 2026-04-24 01:39 | -36.68190 | -73.01043 | 1724 ft | 129 kts | 201° |
| 2026-04-24 01:39 | -36.69008 | -73.01515 | 1553 ft | 128 kts | 202° |
| 2026-04-24 01:40 | -36.69818 | -73.01982 | 1383 ft | 128 kts | 202° |
| 2026-04-24 01:40 | -36.70625 | -73.02450 | 1212 ft | 128 kts | 203° |
| 2026-04-24 01:40 | -36.71425 | -73.02916 | 1039 ft | 127 kts | 203° |
| 2026-04-24 01:40 | -36.72233 | -73.03374 | 874 ft | 126 kts | 203° |
| 2026-04-24 01:41 | -36.73031 | -73.03843 | 729 ft | 126 kts | 204° |
| 2026-04-24 01:41 | -36.73819 | -73.04300 | 533 ft | 125 kts | 204° |
| 2026-04-24 01:41 | -36.74606 | -73.04752 | 404 ft | 124 kts | 204° |
| 2026-04-24 01:41 | -36.75389 | -73.05204 | 260 ft | 123 kts | 205° |
| 2026-04-24 01:42 | -36.76157 | -73.05666 | 81 ft | 122 kts | 205° |
| 2026-04-24 01:42 | -36.76878 | -73.06084 | 50 ft | 97 kts | 204° |
| 2026-04-24 01:42 | -36.77272 | -73.06301 | 56 ft | 28 kts | 195° |
| 2026-04-24 01:42 | -36.77413 | -73.06323 | 58 ft | 18 kts | 182° |
| 2026-04-24 01:43 | -36.77518 | -73.06313 | 60 ft | 12 kts | 175° |
| 2026-04-24 01:43 | -36.77607 | -73.06304 | 60 ft | 11 kts | 176° |
| 2026-04-24 01:43 | -36.77637 | -73.06293 | 60 ft | 3 kts | 105° |
| 2026-04-24 01:43 | -36.77624 | -73.06272 | 60 ft | 4 kts | 17° |
| 2026-04-24 01:44 | -36.77589 | -73.06254 | 60 ft | 6 kts | 25° |
| 2026-04-24 01:44 | -36.77530 | -73.06220 | 58 ft | 11 kts | 25° |
| 2026-04-24 01:44 | -36.77517 | -73.06129 | 57 ft | 13 kts | 113° |
| 2026-04-24 01:44 | -36.77552 | -73.06025 | 58 ft | 13 kts | 98° |
| 2026-04-24 01:45 | -36.77595 | -73.05971 | 59 ft | 5 kts | 177° |
| 2026-04-24 01:45 | -36.77614 | -73.05971 | 59 ft | 0 kts | 180° |
| 2026-04-24 01:45 | -36.77615 | -73.05971 | 59 ft | 0 kts | 180° |